»·PEaware :: WAT169 KLAS-KBUR

WAT169 :: KLAS-KBUR

FLIGHT INFORMATION

Flight Status: Arrived
Operator: Unknown
More flights by this operator :: More flights under this callsign
Pilot: Marty P. (27464)
Aircraft: BOEING 737-800
(B738)
More flights by this aircraft type
Origin: KLAS McCarran Intl
United States
Destination: KBUR Bob Hope-Burbank
United States
More flights between these airports :: More routes between these airports
Route: BOACH8 WHIGG KREME JANNY5
File this flight plan on PilotEdge
Remarks:
Altitude:
(Current/Filed)
24,000ft
Speed:
(Current/Filed)
470kts
Departed: 10-May-20 04:46 PM
Arrived: 10-May-20 05:34 PM
Distance/Time
Traveled:
193nm/0:48
Distance/Time
To Go:
Arrived

Flight Plot

Page will automatically refresh every two minutes.


Map Options




Map Legend


Flown Route
Filed Route
Departure Airport
Arrival Airport
Navaid (VOR, NDB)
Fix

Horizontal Profiles

Position Reports

Time Latitude Longitude Heading Altitude Ground
Speed
10-May-20 16:05 36.081009 -115.147654 61 2191ft 0kts
10-May-20 16:06 36.081009 -115.147654 61 2191ft 0kts
10-May-20 16:07 36.081009 -115.147654 61 2191ft 0kts
10-May-20 16:08 36.081009 -115.147654 61 2191ft 0kts
10-May-20 16:09 36.081009 -115.147654 61 2191ft 0kts
10-May-20 16:10 36.081009 -115.147654 61 2191ft 0kts
10-May-20 16:11 36.081009 -115.147654 61 2191ft 0kts
10-May-20 16:12 36.081009 -115.147654 61 2191ft 0kts
10-May-20 16:13 36.081009 -115.147654 61 2191ft 0kts
10-May-20 16:14 36.081009 -115.147654 61 2191ft 0kts
10-May-20 16:15 36.081009 -115.147654 61 2191ft 0kts
10-May-20 16:16 36.081009 -115.147654 61 2191ft 0kts
10-May-20 16:17 36.081009 -115.147654 61 2191ft 0kts
10-May-20 16:18 36.081009 -115.147654 61 2191ft 0kts
10-May-20 16:19 36.081009 -115.147654 61 2191ft 0kts
10-May-20 16:20 36.081009 -115.147654 61 2191ft 0kts
10-May-20 16:21 36.081009 -115.147654 61 2191ft 0kts
10-May-20 16:22 36.081009 -115.147654 61 2191ft 0kts
10-May-20 16:23 36.081009 -115.147654 61 2191ft 0kts
10-May-20 16:24 36.081009 -115.147654 61 2191ft 0kts
10-May-20 16:25 36.081009 -115.147654 61 2191ft 0kts
10-May-20 16:26 36.081009 -115.147654 61 2191ft 0kts
10-May-20 16:27 36.081009 -115.147654 61 2191ft 0kts
10-May-20 16:28 36.081009 -115.147654 61 2191ft 0kts
10-May-20 16:29 36.081009 -115.147654 61 2191ft 0kts
10-May-20 16:30 36.080883 -115.148079 92 2191ft 2kts
10-May-20 16:31 36.081160 -115.148569 157 2191ft 1kts
10-May-20 16:32 36.081181 -115.148580 156 2191ft 0kts
10-May-20 16:33 36.081181 -115.148580 156 2191ft 0kts
10-May-20 16:34 36.081181 -115.148580 156 2191ft 0kts
10-May-20 16:35 36.080967 -115.148463 156 2191ft 5kts
10-May-20 16:36 36.078707 -115.147134 140 2191ft 10kts
10-May-20 16:37 36.078272 -115.143236 92 2191ft 11kts
10-May-20 16:38 36.078265 -115.139094 89 2191ft 15kts
10-May-20 16:39 36.078265 -115.132718 89 2191ft 21kts
10-May-20 16:40 36.078277 -115.125774 90 2191ft 19kts
10-May-20 16:41 36.077456 -115.121498 139 2191ft 0kts
10-May-20 16:42 36.077456 -115.121498 139 2191ft 0kts
10-May-20 16:43 36.077456 -115.121498 139 2191ft 0kts
10-May-20 16:44 36.076770 -115.121286 178 2191ft 10kts
10-May-20 16:45 36.076413 -115.133693 269 2191ft 132kts
10-May-20 16:46 36.076644 -115.190915 268 4034ft 197kts
10-May-20 16:47 36.049812 -115.264719 212 5038ft 277kts
10-May-20 16:48 35.977812 -115.297941 195 6381ft 285kts
10-May-20 16:49 35.905541 -115.310510 186 10475ft 260kts
10-May-20 16:50 35.833844 -115.314360 176 13394ft 270kts
10-May-20 16:51 35.753347 -115.303686 174 14568ft 336kts
10-May-20 16:52 35.659087 -115.329924 217 16167ft 371kts
10-May-20 16:53 35.587921 -115.422023 227 18428ft 380kts
10-May-20 16:54 35.516124 -115.517633 225 19000ft 381kts
10-May-20 16:55 35.439612 -115.606805 223 19000ft 384kts
10-May-20 16:56 35.367736 -115.690947 223 19000ft 384kts
10-May-20 16:57 35.291647 -115.780785 223 19050ft 390kts
10-May-20 16:58 35.217913 -115.867881 224 22359ft 364kts
10-May-20 16:59 35.144820 -115.954061 224 23886ft 369kts
10-May-20 17:00 35.073846 -116.037515 224 23923ft 361kts
10-May-20 17:01 35.001806 -116.122033 224 23928ft 361kts
10-May-20 17:02 34.932884 -116.209305 233 23950ft 361kts
10-May-20 17:03 34.886065 -116.307466 242 23947ft 364kts
10-May-20 17:04 34.842982 -116.415212 244 23926ft 389kts
10-May-20 17:05 34.799889 -116.536870 253 23911ft 401kts
10-May-20 17:06 34.779638 -116.659910 260 22810ft 388kts
10-May-20 17:07 34.765794 -116.785623 261 21928ft 394kts
10-May-20 17:08 34.752597 -116.915640 261 21923ft 392kts
10-May-20 17:09 34.739489 -117.044316 261 21964ft 387kts
10-May-20 17:10 34.726460 -117.172279 261 22009ft 383kts
10-May-20 17:11 34.713491 -117.298657 261 21989ft 378kts
10-May-20 17:12 34.700945 -117.419733 261 19802ft 366kts
10-May-20 17:13 34.688184 -117.537851 261 19024ft 366kts
10-May-20 17:14 34.676073 -117.651044 259 18069ft 354kts
10-May-20 17:15 34.664270 -117.761907 259 15924ft 346kts
10-May-20 17:16 34.652629 -117.870855 259 13973ft 342kts
10-May-20 17:17 34.640709 -117.979791 259 13157ft 338kts
10-May-20 17:18 34.625056 -118.093816 252 11061ft 325kts
10-May-20 17:19 34.603514 -118.189863 252 10326ft 272kts
10-May-20 17:20 34.585259 -118.271576 253 8941ft 251kts
10-May-20 17:21 34.567379 -118.351601 253 8029ft 235kts
10-May-20 17:22 34.546132 -118.423460 235 7481ft 229kts
10-May-20 17:23 34.499122 -118.472496 212 7064ft 231kts
10-May-20 17:24 34.445461 -118.514008 212 7034ft 228kts
10-May-20 17:25 34.394537 -118.553520 212 6024ft 227kts
10-May-20 17:26 34.347250 -118.578314 175 5422ft 179kts
10-May-20 17:27 34.298925 -118.569781 172 5106ft 183kts
10-May-20 17:28 34.252223 -118.560760 172 4574ft 149kts
10-May-20 17:29 34.214255 -118.546966 133 2796ft 149kts
10-May-20 17:30 34.198756 -118.501629 90 3116ft 170kts
10-May-20 17:31 34.198862 -118.448716 94 2106ft 150kts
10-May-20 17:32 34.198259 -118.398047 94 1257ft 153kts
10-May-20 17:33 34.197691 -118.355371 91 786ft 29kts
10-May-20 17:34 34.196886 -118.351529 179 786ft 2kts

Navigation Log

Ident Type
Flight plan parsing failed, navigation log unavailable